Time;durP1;ratioP1;P1;durP2;ratioP2;P2;SDS_P1;SDS_P2;PMS_P1;PMS_P2;Temp;Humidity;BMP_temperature;BMP_pressure;BME280_temperature;BME280_humidity;BME280_pressure;Samples;Min_cycle;Max_cycle;Signal;HPM_P1;HPM_P2
2024/02/06 00:01:52;;;;;;;6.10;3.40;;;9.00;72.00;;;;;;2435812;57;20970;-66
2024/02/06 00:04:19;;;;;;;6.00;3.85;;;9.00;72.10;;;;;;2435324;56;21445;-67
2024/02/06 00:06:48;;;;;;;6.07;3.97;;;8.90;72.00;;;;;;2216814;57;20982;-66
2024/02/06 00:09:16;;;;;;;7.00;4.20;;;8.90;71.90;;;;;;2216263;57;20974;-67
2024/02/06 00:11:42;;;;;;;6.35;3.62;;;8.90;71.90;;;;;;2216306;56;20983;-67
2024/02/06 00:14:10;;;;;;;7.37;4.03;;;8.90;72.00;;;;;;2218997;57;21033;-67
2024/02/06 00:16:39;;;;;;;7.37;4.37;;;8.90;72.00;;;;;;2435819;56;21274;-66
2024/02/06 00:19:08;;;;;;;8.70;4.00;;;8.90;72.10;;;;;;2216405;57;21348;-67
2024/02/06 00:21:35;;;;;;;7.97;4.22;;;8.90;72.10;;;;;;2216288;57;20997;-67
2024/02/06 00:24:01;;;;;;;7.03;3.50;;;8.90;72.20;;;;;;2435778;57;20954;-66
2024/02/06 00:26:28;;;;;;;6.60;3.20;;;8.90;72.20;;;;;;2215929;57;21657;-66
2024/02/06 00:28:56;;;;;;;6.62;3.95;;;8.80;72.20;;;;;;2216968;56;21047;-67
2024/02/06 00:31:23;;;;;;;6.60;3.67;;;9.00;72.30;;;;;;2435318;56;20986;-68
2024/02/06 00:33:50;;;;;;;6.62;3.67;;;8.90;72.20;;;;;;2216695;56;20958;-67
2024/02/06 00:36:18;;;;;;;7.32;3.83;;;8.90;72.20;;;;;;2215864;56;21066;-66
2024/02/06 00:38:45;;;;;;;9.02;4.28;;;8.90;72.20;;;;;;2216685;57;20981;-66
2024/02/06 00:41:11;;;;;;;6.60;3.87;;;8.90;72.20;;;;;;2216254;57;21030;-67
2024/02/06 00:43:38;;;;;;;7.40;4.12;;;8.90;72.20;;;;;;2435987;56;21042;-67
2024/02/06 00:46:06;;;;;;;9.35;4.30;;;8.90;72.20;;;;;;2436080;56;21021;-67
2024/02/06 00:48:33;;;;;;;7.25;3.65;;;8.90;72.20;;;;;;2436801;56;21685;-66
2024/02/06 00:50:59;;;;;;;7.43;4.43;;;8.90;72.20;;;;;;2219003;57;20996;-66
2024/02/06 00:53:26;;;;;;;8.13;4.53;;;8.90;72.20;;;;;;2435379;56;21058;-66
2024/02/06 00:55:52;;;;;;;8.55;4.18;;;8.80;72.10;;;;;;2436372;56;21056;-66
2024/02/06 00:58:18;;;;;;;10.45;4.35;;;8.80;72.10;;;;;;2215333;57;21907;-67
2024/02/06 01:00:46;;;;;;;7.45;4.20;;;8.80;72.10;;;;;;2216747;56;21021;-66
2024/02/06 01:03:12;;;;;;;11.27;4.43;;;8.90;72.90;;;;;;2435624;56;20970;-67
2024/02/06 01:05:38;;;;;;;9.00;4.60;;;8.80;72.10;;;;;;2216745;57;21057;-67
2024/02/06 01:08:05;;;;;;;9.68;4.62;;;8.80;72.20;;;;;;2216590;57;20978;-67
2024/02/06 01:10:32;;;;;;;9.68;4.35;;;8.80;72.10;;;;;;2216263;57;20977;-66
2024/02/06 01:12:59;;;;;;;8.43;4.53;;;8.80;72.10;;;;;;2216549;56;21022;-66
2024/02/06 01:15:25;;;;;;;7.15;3.87;;;8.80;72.10;;;;;;2432241;56;20990;-67
2024/02/06 01:17:51;;;;;;;7.68;4.32;;;8.80;72.10;;;;;;2216486;57;20974;-66
2024/02/06 01:20:18;;;;;;;8.48;4.40;;;8.80;72.10;;;;;;2215065;57;20950;-67
2024/02/06 01:22:44;;;;;;;7.57;4.55;;;8.80;72.10;;;;;;2215853;57;21033;-67
2024/02/06 01:25:12;;;;;;;8.13;3.92;;;8.80;72.00;;;;;;2215583;56;20946;-66
2024/02/06 01:27:38;;;;;;;7.15;4.00;;;8.80;72.10;;;;;;2434454;56;20982;-68
2024/02/06 01:30:05;;;;;;;7.00;4.18;;;8.80;72.00;;;;;;2215694;56;20962;-66
2024/02/06 01:32:31;;;;;;;6.80;3.95;;;8.80;72.00;;;;;;2434573;56;21070;-68
2024/02/06 01:34:58;;;;;;;6.53;4.05;;;8.80;72.10;;;;;;2216140;57;21026;-67
2024/02/06 01:37:24;;;;;;;7.80;3.45;;;8.80;72.10;;;;;;2216873;56;22073;-68
2024/02/06 01:39:51;;;;;;;7.43;3.60;;;8.70;72.00;;;;;;2216589;56;21037;-66
2024/02/06 01:42:17;;;;;;;10.00;3.80;;;8.70;72.00;;;;;;2216217;56;21300;-67
2024/02/06 01:44:43;;;;;;;7.80;4.25;;;8.70;72.00;;;;;;2215658;57;20949;-66
2024/02/06 01:47:10;;;;;;;7.03;3.90;;;8.70;71.90;;;;;;2435938;57;21014;-68
2024/02/06 01:49:36;;;;;;;7.05;3.75;;;8.70;71.90;;;;;;2216214;56;20986;-67
2024/02/06 01:52:03;;;;;;;9.98;4.28;;;8.70;71.90;;;;;;2439785;56;20950;-66
2024/02/06 01:54:29;;;;;;;8.55;4.18;;;8.70;71.90;;;;;;2435948;56;21035;-67
2024/02/06 01:56:56;;;;;;;7.50;3.53;;;8.70;71.80;;;;;;2436485;57;20974;-67
2024/02/06 01:59:22;;;;;;;6.62;3.50;;;8.70;71.80;;;;;;2219984;57;21006;-68
2024/02/06 02:01:48;;;;;;;6.78;3.70;;;8.70;71.80;;;;;;2435640;56;20990;-66
2024/02/06 02:04:15;;;;;;;6.62;3.62;;;8.70;71.70;;;;;;2216711;56;20974;-65
2024/02/06 02:06:44;;;;;;;9.57;3.80;;;8.70;71.70;;;;;;2222108;57;20973;-67
2024/02/06 02:09:12;;;;;;;6.37;3.50;;;8.60;71.60;;;;;;2217600;56;21061;-66
2024/02/06 02:11:40;;;;;;;6.53;3.30;;;8.60;71.60;;;;;;2434486;56;21018;-66
2024/02/06 02:14:06;;;;;;;9.05;3.80;;;8.60;71.60;;;;;;2219515;56;21235;-66
2024/02/06 02:16:33;;;;;;;6.25;3.40;;;8.60;71.50;;;;;;2216760;57;21404;-66
2024/02/06 02:18:59;;;;;;;5.15;3.03;;;8.60;71.40;;;;;;2436829;56;20982;-67
2024/02/06 02:21:26;;;;;;;6.43;3.47;;;8.60;71.40;;;;;;2216709;56;21358;-67
2024/02/06 02:23:53;;;;;;;6.10;3.00;;;8.50;71.20;;;;;;2436631;56;21518;-66
2024/02/06 02:26:23;;;;;;;6.45;3.20;;;8.50;71.20;;;;;;2218577;57;20966;-67
2024/02/06 02:28:50;;;;;;;6.95;3.33;;;8.50;71.10;;;;;;2217375;56;20981;-67
2024/02/06 02:31:16;;;;;;;6.45;3.35;;;8.50;71.20;;;;;;2436035;57;20942;-67
2024/02/06 02:33:42;;;;;;;5.80;3.15;;;8.40;71.00;;;;;;2217377;57;21737;-65
2024/02/06 02:36:10;;;;;;;6.00;3.33;;;8.40;71.00;;;;;;2435993;56;20990;-67
2024/02/06 02:38:37;;;;;;;6.40;3.45;;;8.40;71.00;;;;;;2435886;56;20973;-68
2024/02/06 02:41:04;;;;;;;5.65;2.85;;;8.40;70.90;;;;;;2217084;57;20985;-66
2024/02/06 02:43:30;;;;;;;6.03;3.12;;;8.30;70.80;;;;;;2219526;57;20966;-69
2024/02/06 02:45:58;;;;;;;5.90;2.92;;;8.30;70.70;;;;;;2218664;57;21028;-66
2024/02/06 02:48:25;;;;;;;5.40;2.45;;;8.20;70.60;;;;;;2216323;57;20993;-67
2024/02/06 02:50:52;;;;;;;5.12;2.87;;;8.20;70.60;;;;;;2217059;57;20950;-66
2024/02/06 02:53:18;;;;;;;6.40;2.83;;;8.20;70.60;;;;;;2216580;57;21498;-65
2024/02/06 02:55:45;;;;;;;10.82;5.60;;;8.10;70.50;;;;;;2436705;56;21077;-69
2024/02/06 02:58:11;;;;;;;14.90;7.43;;;8.10;70.50;;;;;;2436390;56;20970;-66
2024/02/06 03:00:37;;;;;;;11.85;5.53;;;8.10;70.50;;;;;;2435186;56;20978;-67
2024/02/06 03:03:06;;;;;;;10.60;5.03;;;8.00;70.40;;;;;;2435946;56;20987;-67
2024/02/06 03:05:32;;;;;;;10.55;4.72;;;8.00;70.50;;;;;;2216103;56;21764;-65
2024/02/06 03:07:58;;;;;;;11.00;4.75;;;8.00;70.50;;;;;;2436446;56;21065;-67
2024/02/06 03:10:25;;;;;;;8.85;4.57;;;7.90;70.50;;;;;;2216701;56;21064;-67
2024/02/06 03:12:51;;;;;;;7.30;4.20;;;7.90;70.60;;;;;;2216996;57;21002;-65
2024/02/06 03:15:20;;;;;;;8.75;4.40;;;7.90;70.70;;;;;;2216815;57;22038;-66
2024/02/06 03:17:51;;;;;;;8.63;4.00;;;7.80;70.70;;;;;;2217012;57;21037;-66
2024/02/06 03:20:19;;;;;;;7.40;3.50;;;7.80;70.80;;;;;;2216457;57;21076;-67
2024/02/06 03:22:45;;;;;;;8.70;4.25;;;7.80;70.90;;;;;;2216293;57;20977;-67
2024/02/06 03:25:11;;;;;;;7.50;4.35;;;7.80;71.10;;;;;;2216284;56;21006;-67
2024/02/06 03:27:41;;;;;;;12.07;4.70;;;7.80;71.20;;;;;;2435966;56;21369;-66
2024/02/06 03:30:10;;;;;;;8.52;4.45;;;7.80;71.30;;;;;;2220119;57;20977;-67
2024/02/06 03:32:37;;;;;;;9.18;4.62;;;7.80;71.50;;;;;;2435074;56;21022;-67
2024/02/06 03:35:05;;;;;;;10.05;4.70;;;7.80;71.50;;;;;;2216606;57;21888;-65
2024/02/06 03:37:31;;;;;;;10.10;5.10;;;7.80;71.70;;;;;;2216659;56;21909;-65
2024/02/06 03:39:58;;;;;;;12.75;5.93;;;7.80;71.80;;;;;;2217292;56;20950;-67
2024/02/06 03:42:24;;;;;;;8.90;5.12;;;7.80;72.00;;;;;;2216362;56;20938;-66
2024/02/06 03:44:51;;;;;;;11.15;5.18;;;7.80;72.10;;;;;;2216800;56;20981;-67
2024/02/06 03:47:20;;;;;;;9.80;5.22;;;7.80;72.20;;;;;;2220443;57;21901;-66
2024/02/06 03:49:46;;;;;;;10.55;4.95;;;7.90;72.30;;;;;;2436421;56;21038;-66
2024/02/06 03:52:14;;;;;;;12.20;5.70;;;7.90;72.40;;;;;;2215752;56;20966;-66
2024/02/06 03:54:40;;;;;;;10.55;4.95;;;7.90;72.50;;;;;;2216712;56;20966;-68
2024/02/06 03:57:07;;;;;;;9.48;5.43;;;7.90;72.50;;;;;;2436719;56;21476;-65
2024/02/06 03:59:33;;;;;;;10.55;5.25;;;8.00;72.60;;;;;;2435911;56;21029;-65
2024/02/06 04:01:59;;;;;;;11.70;5.57;;;8.00;72.70;;;;;;2435993;56;20970;-68
2024/02/06 04:04:26;;;;;;;8.68;4.85;;;8.00;72.70;;;;;;2216566;56;21005;-68
2024/02/06 04:06:53;;;;;;;10.57;5.30;;;8.10;72.80;;;;;;2436473;56;20966;-67
2024/02/06 04:09:20;;;;;;;9.80;5.00;;;8.10;72.80;;;;;;2436423;56;21013;-67
2024/02/06 04:11:46;;;;;;;11.10;5.85;;;8.10;72.90;;;;;;2216478;57;21034;-67
2024/02/06 04:14:12;;;;;;;9.45;5.22;;;8.20;73.00;;;;;;2216556;56;20973;-66
2024/02/06 04:16:38;;;;;;;10.38;5.55;;;8.20;73.60;;;;;;2216479;56;21009;-67
2024/02/06 04:19:05;;;;;;;9.02;4.90;;;8.30;73.00;;;;;;2216574;57;20966;-67
2024/02/06 04:21:31;;;;;;;9.40;5.32;;;8.30;72.90;;;;;;2435183;56;20977;-65
2024/02/06 04:23:57;;;;;;;10.80;4.93;;;8.30;72.90;;;;;;2216618;57;21741;-66
2024/02/06 04:26:24;;;;;;;12.20;5.60;;;8.40;73.00;;;;;;2435577;56;20950;-66
2024/02/06 04:28:51;;;;;;;13.40;6.90;;;8.40;73.00;;;;;;2436150;56;20961;-68
2024/02/06 04:31:17;;;;;;;10.52;4.85;;;8.40;73.00;;;;;;2216672;56;20949;-66
2024/02/06 04:33:44;;;;;;;12.60;4.85;;;8.50;73.00;;;;;;2216661;57;21010;-66
2024/02/06 04:36:10;;;;;;;13.55;5.87;;;8.50;73.00;;;;;;2216975;57;21013;-66
2024/02/06 04:38:36;;;;;;;9.55;4.97;;;8.50;73.00;;;;;;2216276;57;20997;-66
2024/02/06 04:41:03;;;;;;;10.63;5.57;;;8.60;73.10;;;;;;2435946;56;21470;-68
2024/02/06 04:43:29;;;;;;;8.75;5.03;;;8.60;73.10;;;;;;2215978;57;21005;-66
2024/02/06 04:45:56;;;;;;;7.55;4.43;;;8.60;72.90;;;;;;2216876;56;21017;-67
2024/02/06 04:48:25;;;;;;;11.82;5.50;;;8.60;73.00;;;;;;2220110;57;20946;-66
2024/02/06 04:50:51;;;;;;;9.10;5.22;;;8.70;73.00;;;;;;2430408;56;21005;-67
2024/02/06 04:53:19;;;;;;;8.60;4.62;;;8.70;72.90;;;;;;2219089;57;21014;-66
2024/02/06 04:55:46;;;;;;;9.55;4.85;;;8.70;72.90;;;;;;2217034;57;21057;-66
2024/02/06 04:58:12;;;;;;;9.20;5.00;;;8.70;72.90;;;;;;2436416;56;21518;-66
2024/02/06 05:00:39;;;;;;;10.43;5.50;;;8.80;73.00;;;;;;2219794;57;21018;-66
2024/02/06 05:03:05;;;;;;;10.10;5.30;;;8.80;72.90;;;;;;2224017;56;21391;-66
2024/02/06 05:05:31;;;;;;;10.43;5.40;;;8.80;72.90;;;;;;2218210;57;21009;-67
2024/02/06 05:07:58;;;;;;;12.85;6.60;;;8.80;72.80;;;;;;2436226;57;21495;-66
2024/02/06 05:10:24;;;;;;;10.75;5.53;;;8.80;72.80;;;;;;2216535;57;21278;-67
2024/02/06 05:12:51;;;;;;;10.27;6.57;;;8.90;72.90;;;;;;2216325;57;20946;-67
2024/02/06 05:15:17;;;;;;;12.18;6.07;;;8.90;72.90;;;;;;2435531;57;20965;-67
2024/02/06 05:17:43;;;;;;;8.52;5.22;;;8.90;72.90;;;;;;2216424;57;20973;-66
2024/02/06 05:20:10;;;;;;;11.63;6.05;;;8.90;72.80;;;;;;2436174;56;21065;-67
2024/02/06 05:22:37;;;;;;;9.05;5.22;;;8.90;72.80;;;;;;2215986;56;21423;-66
2024/02/06 05:25:06;;;;;;;11.30;5.20;;;9.00;72.80;;;;;;2216160;57;20934;-67
2024/02/06 05:27:33;;;;;;;9.02;4.82;;;9.00;72.70;;;;;;2216486;56;21121;-67
2024/02/06 05:30:04;;;;;;;10.20;5.32;;;9.00;72.80;;;;;;2216561;56;21057;-67
2024/02/06 05:32:39;;;;;;;7.87;4.82;;;9.00;72.60;;;;;;2434997;56;20958;-66
2024/02/06 05:35:06;;;;;;;7.55;4.68;;;9.10;72.40;;;;;;2214577;56;21427;-67
2024/02/06 05:37:32;;;;;;;9.10;4.82;;;9.10;72.50;;;;;;2215819;57;20965;-67
2024/02/06 05:39:59;;;;;;;7.22;4.80;;;9.10;72.30;;;;;;2216780;56;21053;-67
2024/02/06 05:42:25;;;;;;;9.57;4.53;;;9.10;72.20;;;;;;2219079;57;20992;-68
2024/02/06 05:44:51;;;;;;;9.73;4.78;;;9.10;72.10;;;;;;2215398;57;20982;-66
2024/02/06 05:47:19;;;;;;;9.57;4.60;;;9.10;72.10;;;;;;2435836;56;20958;-67
2024/02/06 05:49:45;;;;;;;8.07;4.70;;;9.10;71.90;;;;;;2215956;57;21022;-67
2024/02/06 05:52:12;;;;;;;10.18;5.35;;;9.00;71.80;;;;;;2437285;56;20974;-67
2024/02/06 05:54:38;;;;;;;9.90;5.53;;;9.00;71.70;;;;;;2216534;56;20966;-68
2024/02/06 05:57:05;;;;;;;10.70;6.60;;;9.00;71.70;;;;;;2435757;57;21061;-67
2024/02/06 05:59:32;;;;;;;14.38;6.35;;;9.00;71.60;;;;;;2435912;56;21046;-66
2024/02/06 06:01:58;;;;;;;9.65;4.78;;;9.00;71.50;;;;;;2216795;56;21495;-68
2024/02/06 06:04:25;;;;;;;9.43;4.50;;;9.00;71.50;;;;;;2216321;56;20961;-68
2024/02/06 06:06:53;;;;;;;10.80;4.05;;;9.00;71.60;;;;;;2219274;57;20953;-69
2024/02/06 06:09:20;;;;;;;7.37;4.45;;;8.90;71.50;;;;;;2218055;57;20990;-67
2024/02/06 06:11:46;;;;;;;7.97;3.97;;;8.90;71.60;;;;;;2435510;56;20986;-65
2024/02/06 06:14:12;;;;;;;8.52;4.62;;;8.90;71.60;;;;;;2215712;57;21831;-68
2024/02/06 06:16:39;;;;;;;8.43;4.30;;;8.90;71.70;;;;;;2216107;56;21073;-68
2024/02/06 06:19:05;;;;;;;9.68;5.22;;;8.90;71.80;;;;;;2216862;57;21022;-68
2024/02/06 06:21:32;;;;;;;8.13;4.68;;;8.90;71.90;;;;;;2216577;56;21033;-66
2024/02/06 06:23:59;;;;;;;8.20;4.35;;;8.90;72.00;;;;;;2216365;57;20974;-67
2024/02/06 06:26:25;;;;;;;8.63;4.40;;;8.80;72.10;;;;;;2435432;56;20963;-69
2024/02/06 06:28:53;;;;;;;10.00;4.55;;;8.90;72.20;;;;;;2216426;57;21684;-68
2024/02/06 06:31:20;;;;;;;9.30;4.93;;;8.90;72.20;;;;;;2219869;57;21918;-68
2024/02/06 06:33:46;;;;;;;8.98;4.82;;;8.90;72.30;;;;;;2215999;56;21022;-66
2024/02/06 06:36:12;;;;;;;9.45;4.87;;;8.90;72.30;;;;;;2216142;56;20973;-66
2024/02/06 06:38:39;;;;;;;9.07;4.95;;;8.90;72.40;;;;;;2435423;56;21873;-67
2024/02/06 06:41:05;;;;;;;9.18;4.70;;;8.90;72.40;;;;;;2215863;57;21009;-67
2024/02/06 06:43:32;;;;;;;10.38;4.55;;;8.90;72.40;;;;;;2435295;56;21014;-66
2024/02/06 06:45:58;;;;;;;9.65;4.40;;;9.00;72.60;;;;;;2216065;56;21030;-66
2024/02/06 06:48:24;;;;;;;9.40;4.43;;;9.00;72.60;;;;;;2215798;56;21009;-65
2024/02/06 06:50:51;;;;;;;7.70;4.37;;;9.00;72.70;;;;;;2215539;56;21037;-66
2024/02/06 06:53:17;;;;;;;8.80;4.50;;;9.00;72.70;;;;;;2216741;56;20986;-66
2024/02/06 06:55:46;;;;;;;8.18;4.68;;;9.10;72.80;;;;;;2435964;56;21058;-66
2024/02/06 06:58:14;;;;;;;8.40;4.45;;;9.10;72.80;;;;;;2435957;56;21010;-66
2024/02/06 07:00:40;;;;;;;9.20;4.37;;;9.10;72.80;;;;;;2436267;56;21045;-67
2024/02/06 07:03:07;;;;;;;9.15;4.43;;;9.10;72.80;;;;;;2437078;56;20970;-67
2024/02/06 07:05:33;;;;;;;12.40;5.90;;;9.20;72.80;;;;;;2216381;57;21408;-66
2024/02/06 07:07:59;;;;;;;9.98;4.55;;;9.20;72.80;;;;;;2216635;57;21025;-66
2024/02/06 07:10:30;;;;;;;8.40;4.15;;;9.20;72.80;;;;;;2216518;57;21037;-66
2024/02/06 07:12:57;;;;;;;9.27;5.20;;;9.30;72.80;;;;;;2216924;56;20962;-66
2024/02/06 07:15:23;;;;;;;10.25;5.03;;;9.30;73.00;;;;;;2216570;57;20954;-66
2024/02/06 07:17:49;;;;;;;11.50;5.20;;;9.30;72.90;;;;;;2434276;56;21423;-67
2024/02/06 07:20:16;;;;;;;16.15;7.07;;;9.40;73.00;;;;;;2219899;57;21113;-67
2024/02/06 07:22:45;;;;;;;17.45;6.95;;;9.30;72.90;;;;;;2435290;56;21466;-67
2024/02/06 07:25:11;;;;;;;15.55;5.62;;;9.40;73.00;;;;;;2216321;56;20950;-66
2024/02/06 07:27:38;;;;;;;13.80;6.30;;;9.40;73.00;;;;;;2216451;57;20997;-66
2024/02/06 07:30:05;;;;;;;13.60;6.45;;;9.40;72.90;;;;;;2216220;57;20970;-66
2024/02/06 07:32:33;;;;;;;12.18;6.18;;;9.50;73.00;;;;;;2223122;56;21086;-66
2024/02/06 07:35:07;;;;;;;9.93;5.82;;;9.50;72.90;;;;;;2434061;56;21514;-67
2024/02/06 07:37:33;;;;;;;11.98;6.50;;;9.50;72.90;;;;;;2216497;57;21881;-67
2024/02/06 07:40:02;;;;;;;12.75;6.20;;;9.50;72.80;;;;;;2435733;56;20926;-68
2024/02/06 07:42:29;;;;;;;13.75;7.07;;;9.50;72.80;;;;;;2437366;56;20965;-66
2024/02/06 07:44:56;;;;;;;11.10;6.07;;;9.60;72.80;;;;;;2217540;56;21010;-67
2024/02/06 07:47:22;;;;;;;9.32;5.72;;;9.60;72.80;;;;;;2436064;56;20962;-66
2024/02/06 07:49:48;;;;;;;9.07;5.47;;;9.60;72.80;;;;;;2436149;56;21767;-67
2024/02/06 07:52:15;;;;;;;10.32;5.37;;;9.60;72.80;;;;;;2216405;57;21049;-66
2024/02/06 07:54:46;;;;;;;10.40;5.60;;;9.60;72.80;;;;;;2216783;56;21003;-66
2024/02/06 07:57:12;;;;;;;11.52;6.43;;;9.70;72.90;;;;;;2435830;56;20977;-67
2024/02/06 07:59:39;;;;;;;12.35;5.95;;;9.70;72.80;;;;;;2216130;57;21365;-66
2024/02/06 08:02:07;;;;;;;8.85;5.30;;;9.70;72.80;;;;;;2216286;57;20958;-67
2024/02/06 08:04:33;;;;;;;12.07;5.87;;;9.70;72.80;;;;;;2216306;57;21799;-66
2024/02/06 08:07:00;;;;;;;10.43;5.57;;;9.80;72.90;;;;;;2435663;56;20997;-66
2024/02/06 08:09:27;;;;;;;8.35;5.15;;;9.80;72.90;;;;;;2216289;56;20991;-66
2024/02/06 08:11:56;;;;;;;10.15;5.22;;;9.80;72.90;;;;;;2435572;56;20954;-67
2024/02/06 08:14:23;;;;;;;11.00;5.87;;;9.80;72.80;;;;;;2434932;56;20977;-66
2024/02/06 08:16:50;;;;;;;10.35;5.70;;;9.70;72.80;;;;;;2216750;57;20974;-66
2024/02/06 08:19:16;;;;;;;12.75;6.25;;;9.80;72.80;;;;;;2435922;56;20961;-66
2024/02/06 08:21:43;;;;;;;10.07;5.47;;;9.90;72.80;;;;;;2435531;56;21691;-66
2024/02/06 08:24:09;;;;;;;11.18;6.10;;;9.90;72.80;;;;;;2216296;56;21045;-66
2024/02/06 08:26:35;;;;;;;9.55;5.12;;;9.90;72.70;;;;;;2435346;56;21550;-67
2024/02/06 08:29:02;;;;;;;12.02;6.25;;;9.90;72.70;;;;;;2216520;56;20997;-67
2024/02/06 08:31:28;;;;;;;10.05;6.00;;;9.90;72.70;;;;;;2216340;56;20963;-67
2024/02/06 08:33:55;;;;;;;11.52;6.60;;;10.00;71.60;;;;;;2436089;56;21510;-67
2024/02/06 08:36:24;;;;;;;10.95;6.25;;;10.00;71.50;;;;;;2216820;57;21046;-67
2024/02/06 08:38:53;;;;;;;10.75;6.20;;;10.00;71.50;;;;;;2216670;56;20978;-66
2024/02/06 08:41:28;;;;;;;11.00;6.22;;;10.00;71.50;;;;;;2437017;56;20969;-66
2024/02/06 08:43:56;;;;;;;12.00;5.72;;;10.00;71.30;;;;;;2217768;57;21121;-66
2024/02/06 08:46:22;;;;;;;12.77;6.85;;;10.00;71.40;;;;;;2435916;57;20954;-67
2024/02/06 08:48:49;;;;;;;16.40;6.90;;;10.00;71.40;;;;;;2216645;56;21025;-66
2024/02/06 08:51:15;;;;;;;12.52;6.65;;;10.00;71.30;;;;;;2216446;56;21018;-66
2024/02/06 08:53:43;;;;;;;12.13;6.18;;;10.00;71.40;;;;;;2215966;57;20970;-67
2024/02/06 08:56:10;;;;;;;10.13;6.03;;;10.00;71.40;;;;;;2216536;56;21097;-68
2024/02/06 08:58:36;;;;;;;11.65;6.60;;;10.10;71.50;;;;;;2216282;56;21606;-67
2024/02/06 09:01:02;;;;;;;11.12;6.35;;;10.10;71.50;;;;;;2216210;57;21029;-66
2024/02/06 09:03:29;;;;;;;11.75;6.70;;;10.10;71.40;;;;;;2215632;56;21060;-66
2024/02/06 09:05:56;;;;;;;11.70;6.47;;;10.10;71.30;;;;;;2222728;57;21054;-67
2024/02/06 09:08:25;;;;;;;9.27;5.43;;;10.10;71.30;;;;;;2435051;56;20966;-66
2024/02/06 09:10:55;;;;;;;12.90;6.25;;;10.10;71.30;;;;;;2216993;57;21535;-66
2024/02/06 09:13:22;;;;;;;14.52;6.07;;;10.10;71.20;;;;;;2215443;56;22045;-66
2024/02/06 09:15:49;;;;;;;9.82;5.50;;;10.10;70.90;;;;;;2436057;56;21058;-67
2024/02/06 09:18:16;;;;;;;13.05;6.12;;;10.10;70.80;;;;;;2434222;56;20934;-67
2024/02/06 09:20:44;;;;;;;12.07;6.30;;;10.10;70.60;;;;;;2435281;56;20985;-67
2024/02/06 09:23:10;;;;;;;9.93;4.90;;;10.10;70.60;;;;;;2215167;57;20966;-66
2024/02/06 09:25:37;;;;;;;8.70;5.28;;;10.10;70.60;;;;;;2434230;56;21955;-66
2024/02/06 09:28:05;;;;;;;7.95;5.03;;;10.10;70.70;;;;;;2215876;57;20958;-67
2024/02/06 09:30:31;;;;;;;9.30;4.90;;;10.10;70.70;;;;;;2215604;56;20961;-67
2024/02/06 09:32:57;;;;;;;8.18;5.00;;;10.10;70.80;;;;;;2215802;57;20985;-68
2024/02/06 09:35:24;;;;;;;8.35;5.22;;;10.10;70.80;;;;;;2216360;56;21982;-67
2024/02/06 09:37:50;;;;;;;7.55;4.15;;;10.20;70.90;;;;;;2216264;56;21545;-67
2024/02/06 09:40:20;;;;;;;7.57;4.60;;;10.10;70.80;;;;;;2435352;56;21944;-67
2024/02/06 09:42:46;;;;;;;9.02;4.05;;;10.10;70.80;;;;;;2216172;56;20980;-67
2024/02/06 09:45:13;;;;;;;7.95;3.60;;;10.10;70.80;;;;;;2216185;56;20966;-68
2024/02/06 09:47:42;;;;;;;6.85;3.87;;;10.20;71.00;;;;;;2215935;57;21939;-66
2024/02/06 09:50:09;;;;;;;6.18;3.92;;;10.10;70.80;;;;;;2215970;56;20966;-67
2024/02/06 09:52:35;;;;;;;9.27;4.28;;;10.20;70.90;;;;;;2219465;56;21218;-67
2024/02/06 09:55:09;;;;;;;8.60;4.35;;;10.20;70.90;;;;;;2216267;57;21778;-66
2024/02/06 09:57:35;;;;;;;7.37;4.05;;;10.20;70.90;;;;;;2435316;56;20965;-68
2024/02/06 10:00:01;;;;;;;8.55;3.67;;;10.20;71.00;;;;;;2435298;56;21519;-68
2024/02/06 10:02:28;;;;;;;8.38;4.12;;;10.20;71.00;;;;;;2216175;56;20942;-68
2024/02/06 10:04:55;;;;;;;6.37;3.47;;;10.20;71.00;;;;;;2216558;57;21519;-67
2024/02/06 10:07:22;;;;;;;6.68;3.85;;;10.20;71.00;;;;;;2216530;57;21526;-67
2024/02/06 10:09:49;;;;;;;6.57;3.58;;;10.20;70.90;;;;;;2216200;56;20997;-68
2024/02/06 10:12:16;;;;;;;6.45;3.50;;;10.20;71.10;;;;;;2216111;57;20962;-67
2024/02/06 10:14:42;;;;;;;6.53;3.53;;;10.30;71.30;;;;;;2216078;57;20946;-68
2024/02/06 10:17:09;;;;;;;8.85;3.05;;;10.30;71.30;;;;;;2216068;57;21049;-68
2024/02/06 10:19:35;;;;;;;6.25;3.65;;;10.30;71.30;;;;;;2221794;57;20967;-67
2024/02/06 10:22:02;;;;;;;6.65;3.37;;;10.30;71.20;;;;;;2214969;56;20984;-66
2024/02/06 10:24:31;;;;;;;5.37;2.90;;;10.40;71.20;;;;;;2434758;56;20990;-67
2024/02/06 10:27:03;;;;;;;6.18;3.00;;;10.40;71.10;;;;;;2217179;57;20967;-67
2024/02/06 10:29:32;;;;;;;5.75;2.95;;;10.40;71.10;;;;;;2215262;57;20950;-67
2024/02/06 10:31:58;;;;;;;6.45;3.12;;;10.40;71.20;;;;;;2435028;56;21037;-67
2024/02/06 10:34:26;;;;;;;5.32;2.80;;;10.40;71.20;;;;;;2214776;57;20978;-67
2024/02/06 10:36:57;;;;;;;5.87;3.03;;;10.50;71.40;;;;;;2213194;56;20989;-66
2024/02/06 10:39:23;;;;;;;4.50;2.28;;;10.50;71.20;;;;;;2218502;57;21048;-67
2024/02/06 10:41:58;;;;;;;4.45;2.30;;;10.50;71.40;;;;;;2215296;57;21030;-66
2024/02/06 10:44:28;;;;;;;5.20;2.87;;;10.60;71.80;;;;;;2435351;57;20978;-67
2024/02/06 10:47:04;;;;;;;6.28;2.87;;;10.50;71.40;;;;;;2215217;57;21093;-67
2024/02/06 10:49:30;;;;;;;6.25;3.55;;;10.60;71.20;;;;;;2215810;56;20993;-67
2024/02/06 10:52:04;;;;;;;7.18;3.10;;;10.60;71.30;;;;;;2216803;57;21033;-67
2024/02/06 10:54:30;;;;;;;5.95;3.05;;;10.70;71.10;;;;;;2215856;57;21136;-65
2024/02/06 10:57:03;;;;;;;5.40;2.42;;;10.80;71.50;;;;;;2219535;57;21898;-66
2024/02/06 10:59:50;;;;;;;3.87;2.20;;;10.70;71.20;;;;;;2434420;56;21718;-67
2024/02/06 11:02:28;;;;;;;3.83;2.22;;;10.70;71.40;;;;;;2215892;56;21727;-66
2024/02/06 11:06:30;;;;;;;4.90;2.22;;;10.80;71.30;;;;;;2216246;56;20965;-66
2024/02/06 11:08:57;;;;;;;3.75;1.87;;;10.90;70.10;;;;;;2212150;56;21045;-66
2024/02/06 11:11:23;;;;;;;3.92;1.98;;;10.90;71.70;;;;;;2213286;56;21379;-67
2024/02/06 11:13:50;;;;;;;6.90;3.62;;;10.90;71.60;;;;;;2216504;57;21041;-67
2024/02/06 11:16:21;;;;;;;8.43;4.97;;;10.90;71.60;;;;;;2215838;56;21086;-66
2024/02/06 11:20:09;;;;;;;8.73;4.65;;;10.90;71.40;;;;;;2215606;57;20985;-67
2024/02/06 11:22:40;;;;;;;7.00;2.92;;;11.00;70.80;;;;;;2215595;56;21357;-66
2024/02/06 11:25:12;;;;;;;4.78;2.65;;;11.00;71.40;;;;;;2217012;57;21831;-67
2024/02/06 11:27:39;;;;;;;4.20;2.20;;;11.00;71.30;;;;;;2221791;57;21548;-68
2024/02/06 11:30:06;;;;;;;4.03;1.65;;;11.10;71.50;;;;;;2216456;57;21049;-66
2024/02/06 11:32:36;;;;;;;4.75;1.83;;;11.10;71.40;;;;;;2216087;56;21058;-66
2024/02/06 11:35:02;;;;;;;3.87;1.48;;;11.10;71.40;;;;;;2435761;56;21049;-67
2024/02/06 11:37:32;;;;;;;4.37;1.37;;;11.10;71.50;;;;;;2215748;56;22161;-67
2024/02/06 11:40:11;;;;;;;3.50;1.40;;;11.20;71.50;;;;;;2436243;56;21715;-67
2024/02/06 11:42:38;;;;;;;2.78;1.33;;;11.20;71.30;;;;;;2215609;57;21033;-67
2024/02/06 11:45:22;;;;;;;2.33;1.12;;;11.20;71.60;;;;;;2216242;56;21050;-67
2024/02/06 11:47:58;;;;;;;4.30;1.65;;;11.20;70.80;;;;;;2216861;56;21813;-67
2024/02/06 11:50:29;;;;;;;2.50;1.05;;;11.30;71.40;;;;;;2217820;57;21002;-67
2024/02/06 11:53:03;;;;;;;2.78;1.10;;;11.30;71.70;;;;;;2436031;56;20970;-66
2024/02/06 11:55:31;;;;;;;3.30;1.23;;;11.30;71.60;;;;;;2216031;56;20977;-67
2024/02/06 11:57:59;;;;;;;2.62;1.10;;;11.30;71.70;;;;;;2216634;57;20978;-67
2024/02/06 12:00:25;;;;;;;2.85;1.17;;;11.40;71.80;;;;;;2216055;57;20989;-67
2024/02/06 12:02:53;;;;;;;3.20;1.37;;;11.40;71.80;;;;;;2220277;57;21072;-67
2024/02/06 12:05:20;;;;;;;3.45;1.50;;;11.40;71.60;;;;;;2434959;56;21018;-67
2024/02/06 12:07:56;;;;;;;3.53;1.83;;;11.40;71.60;;;;;;2216327;56;21007;-67
2024/02/06 12:10:30;;;;;;;3.97;1.77;;;11.40;71.00;;;;;;2217174;56;20970;-68
2024/02/06 12:13:04;;;;;;;3.00;1.40;;;11.50;71.30;;;;;;2216117;56;20950;-67
2024/02/06 12:15:31;;;;;;;4.10;1.90;;;11.50;71.60;;;;;;2435278;56;21015;-67
2024/02/06 12:17:57;;;;;;;4.00;2.10;;;11.50;71.60;;;;;;2436040;56;21799;-67
2024/02/06 12:20:24;;;;;;;4.95;3.08;;;11.50;71.60;;;;;;2216676;57;21014;-67
2024/02/06 12:23:06;;;;;;;5.72;2.53;;;11.50;71.60;;;;;;2216696;57;20982;-66
2024/02/06 12:25:42;;;;;;;4.75;2.83;;;11.60;71.10;;;;;;2207549;56;21009;-67
2024/02/06 12:28:12;;;;;;;4.35;2.30;;;11.60;71.30;;;;;;2213123;58;20997;-67
2024/02/06 12:30:41;;;;;;;4.75;2.35;;;11.60;71.70;;;;;;2432122;56;20977;-67
2024/02/06 12:33:07;;;;;;;3.70;1.70;;;11.60;71.70;;;;;;2216291;56;20966;-66
2024/02/06 12:35:37;;;;;;;4.68;2.45;;;11.70;71.80;;;;;;2216376;57;20974;-66
2024/02/06 12:38:04;;;;;;;3.78;1.92;;;11.70;71.80;;;;;;2436136;56;21025;-67
2024/02/06 12:40:32;;;;;;;5.10;2.65;;;11.70;71.90;;;;;;2435881;56;21562;-67
2024/02/06 12:43:03;;;;;;;5.18;2.60;;;11.70;71.90;;;;;;2436012;56;21730;-67
2024/02/06 12:45:29;;;;;;;3.33;2.00;;;11.80;71.80;;;;;;2435447;57;20962;-67
2024/02/06 12:47:56;;;;;;;3.83;1.90;;;11.80;72.00;;;;;;2436345;56;21483;-67
2024/02/06 12:50:24;;;;;;;3.58;1.90;;;11.80;71.90;;;;;;2436115;56;21034;-67
2024/02/06 12:52:54;;;;;;;3.20;1.52;;;11.90;71.90;;;;;;2216945;56;21546;-67
2024/02/06 12:55:22;;;;;;;4.18;1.75;;;11.90;72.00;;;;;;2435963;56;21002;-67